createdAt,value
2022-12-25T00:00:20.999Z,3.37
2022-12-25T00:05:22.903Z,3.90
2022-12-25T00:10:25.803Z,3.53
2022-12-25T00:15:27.622Z,3.40
2022-12-25T00:20:29.151Z,3.67
2022-12-25T00:25:30.674Z,4.10
2022-12-25T00:30:32.212Z,4.10
2022-12-25T00:35:33.837Z,4.23
2022-12-25T00:40:42.240Z,3.50
2022-12-25T00:45:43.819Z,3.80
2022-12-25T00:50:45.373Z,3.43
2022-12-25T00:56:01.225Z,3.20
2022-12-25T01:01:03.944Z,3.07
2022-12-25T01:06:07.225Z,2.40
2022-12-25T01:11:09.001Z,2.40
2022-12-25T01:16:11.747Z,2.50
2022-12-25T01:21:16.285Z,2.40
2022-12-25T01:26:19.374Z,2.20
2022-12-25T01:31:23.231Z,2.90
2022-12-25T01:36:26.205Z,2.70
2022-12-25T01:41:27.721Z,2.53
2022-12-25T01:46:29.964Z,2.10
2022-12-25T01:52:11.334Z,2.37
2022-12-25T01:57:17.525Z,2.40
2022-12-25T02:02:19.352Z,2.80
2022-12-25T02:07:23.963Z,2.50
2022-12-25T02:12:31.520Z,2.17
2022-12-25T02:17:37.548Z,2.63
2022-12-25T02:22:57.753Z,1.83
2022-12-25T02:28:09.397Z,2.10
2022-12-25T02:33:42.963Z,2.10
2022-12-25T02:39:04.290Z,2.40
2022-12-25T02:44:29.783Z,2.23
2022-12-25T02:49:50.359Z,2.47
2022-12-25T02:55:14.321Z,2.63
2022-12-25T03:00:35.244Z,3.07
2022-12-25T03:05:57.453Z,2.60
2022-12-25T03:11:24.145Z,2.50
2022-12-25T03:16:44.674Z,2.23
2022-12-25T03:22:04.866Z,2.60
2022-12-25T03:27:06.507Z,1.87
2022-12-25T03:32:26.565Z,2.50
2022-12-25T03:37:43.114Z,2.33
2022-12-25T03:43:09.060Z,2.20
2022-12-25T03:48:13.680Z,2.83
2022-12-25T03:53:39.286Z,2.70
2022-12-25T03:59:23.135Z,2.70
2022-12-25T04:04:46.094Z,2.80
2022-12-25T04:10:06.873Z,2.87
2022-12-25T04:15:27.960Z,2.40
2022-12-25T04:20:48.210Z,2.30
2022-12-25T04:26:08.426Z,2.57
2022-12-25T04:31:28.639Z,2.47
2022-12-25T04:36:30.205Z,2.60
2022-12-25T04:41:31.721Z,2.10
2022-12-25T04:46:33.241Z,2.10
2022-12-25T04:51:36.564Z,2.27
2022-12-25T04:56:43.350Z,2.10
2022-12-25T05:01:47.134Z,2.10
2022-12-25T05:06:48.738Z,1.90
2022-12-25T05:11:50.301Z,2.57
2022-12-25T05:16:51.901Z,3.17
2022-12-25T05:21:54.097Z,2.30
2022-12-25T05:26:55.705Z,2.63
2022-12-25T05:31:57.390Z,2.33
2022-12-25T05:36:58.932Z,2.80
2022-12-25T05:42:01.058Z,2.80
2022-12-25T05:47:02.750Z,2.30
2022-12-25T05:52:04.436Z,1.97
2022-12-25T05:57:06.387Z,2.80
2022-12-25T06:02:08.001Z,2.33
2022-12-25T06:07:09.545Z,2.23
2022-12-25T06:12:11.085Z,2.27
2022-12-25T06:17:12.669Z,2.20
2022-12-25T06:22:14.169Z,2.27
2022-12-25T06:27:15.985Z,2.33
2022-12-25T06:32:17.788Z,2.67
2022-12-25T06:37:19.784Z,2.43
2022-12-25T06:42:21.766Z,2.30
2022-12-25T06:47:23.353Z,3.10
2022-12-25T06:52:24.933Z,2.60
2022-12-25T06:57:26.562Z,2.90
2022-12-25T07:02:28.277Z,3.40
2022-12-25T07:07:29.882Z,3.70
2022-12-25T07:12:31.565Z,3.47
2022-12-25T07:17:34.564Z,4.00
2022-12-25T07:22:36.129Z,3.60
2022-12-25T07:27:37.729Z,3.93
2022-12-25T07:32:39.380Z,3.47
2022-12-25T07:37:40.946Z,3.20
2022-12-25T07:42:42.528Z,2.30
2022-12-25T07:47:44.493Z,2.33
2022-12-25T07:52:46.967Z,2.20
2022-12-25T07:57:48.697Z,2.20
2022-12-25T08:02:50.689Z,2.13
2022-12-25T08:07:57.639Z,2.20
2022-12-25T08:12:59.772Z,2.00
2022-12-25T08:18:01.342Z,2.30
2022-12-25T08:23:04.122Z,2.40
2022-12-25T08:28:06.211Z,2.23
2022-12-25T08:33:07.763Z,2.00
2022-12-25T08:38:09.373Z,2.53
2022-12-25T08:43:10.938Z,2.60
2022-12-25T08:48:12.701Z,2.33
2022-12-25T08:53:14.825Z,2.40
2022-12-25T08:58:16.768Z,2.37
2022-12-25T09:03:18.446Z,2.80
2022-12-25T09:08:21.919Z,2.77
2022-12-25T09:13:23.502Z,2.60
2022-12-25T09:18:25.334Z,2.57
2022-12-25T09:23:27.717Z,3.17
2022-12-25T09:28:29.301Z,3.87
2022-12-25T09:33:30.835Z,3.30
2022-12-25T09:38:32.745Z,4.30
2022-12-25T09:43:39.809Z,3.37
2022-12-25T09:48:48.905Z,2.53
2022-12-25T09:53:58.693Z,2.93
2022-12-25T09:59:00.280Z,2.53
2022-12-25T10:04:11.088Z,2.27
2022-12-25T10:09:39.177Z,2.63
2022-12-25T10:14:58.029Z,2.50
2022-12-25T10:20:12.372Z,2.73
2022-12-25T10:25:24.777Z,2.60
2022-12-25T10:30:27.885Z,2.30
2022-12-25T10:35:30.672Z,2.70
2022-12-25T10:41:14.241Z,2.30
2022-12-25T10:46:16.894Z,2.23
2022-12-25T10:51:30.654Z,2.23
2022-12-25T10:56:32.256Z,3.17
2022-12-25T11:01:34.000Z,2.70
2022-12-25T11:06:35.829Z,2.70
2022-12-25T11:11:38.156Z,2.53
2022-12-25T11:16:40.314Z,2.40
2022-12-25T11:21:52.652Z,2.23
2022-12-25T11:26:59.539Z,2.20
2022-12-25T11:32:02.807Z,2.00
2022-12-25T11:37:10.769Z,3.13
2022-12-25T11:42:24.081Z,3.50
2022-12-25T11:47:38.855Z,3.80
2022-12-25T11:52:42.718Z,3.67
2022-12-25T11:57:46.075Z,3.93
2022-12-25T12:02:47.646Z,3.80
2022-12-25T12:08:03.814Z,3.87
2022-12-25T12:13:20.736Z,2.87
2022-12-25T12:18:28.398Z,2.60
2022-12-25T12:23:48.097Z,2.60
2022-12-25T12:28:50.647Z,2.57
2022-12-25T12:33:57.496Z,2.97
2022-12-25T12:38:59.178Z,2.93
2022-12-25T12:44:03.615Z,2.73
2022-12-25T12:49:22.264Z,2.70
2022-12-25T12:54:27.961Z,2.50
2022-12-25T12:59:35.120Z,2.43
2022-12-25T13:05:00.315Z,2.80
2022-12-25T13:10:25.695Z,2.30
2022-12-25T13:15:30.664Z,2.53
2022-12-25T13:21:07.717Z,2.70
2022-12-25T13:26:14.930Z,2.53
2022-12-25T13:31:21.862Z,2.43
2022-12-25T13:36:24.211Z,2.57
2022-12-25T13:41:59.715Z,2.63
2022-12-25T13:47:29.754Z,2.50
2022-12-25T13:52:36.483Z,2.97
2022-12-25T13:57:40.401Z,2.53
2022-12-25T14:02:41.988Z,3.30
2022-12-25T14:07:43.720Z,2.90
2022-12-25T14:12:45.591Z,2.80
2022-12-25T14:17:48.177Z,3.20
2022-12-25T14:22:53.674Z,2.67
2022-12-25T14:27:55.343Z,2.77
2022-12-25T14:32:57.237Z,2.47
2022-12-25T14:38:00.350Z,3.10
2022-12-25T14:43:04.572Z,2.40
2022-12-25T14:48:24.461Z,2.50
2022-12-25T14:53:34.296Z,2.60
2022-12-25T14:58:40.964Z,2.70
2022-12-25T15:03:43.595Z,3.07
2022-12-25T15:08:58.923Z,2.50
2022-12-25T15:14:00.792Z,2.63
2022-12-25T15:19:02.540Z,2.60
2022-12-25T15:24:04.293Z,2.50
2022-12-25T15:29:08.970Z,2.97
2022-12-25T15:34:17.229Z,2.37
2022-12-25T15:39:18.849Z,2.87
2022-12-25T15:44:21.116Z,2.27
2022-12-25T15:49:23.650Z,2.60
2022-12-25T15:54:25.323Z,2.47
2022-12-25T15:59:26.933Z,2.87
2022-12-25T16:04:31.338Z,2.50
2022-12-25T16:09:33.015Z,2.30
2022-12-25T16:14:34.689Z,2.47
2022-12-25T16:19:36.283Z,2.50
2022-12-25T16:24:37.951Z,2.87
2022-12-25T16:29:39.643Z,2.73
2022-12-25T16:34:41.671Z,2.77
2022-12-25T16:39:43.238Z,2.20
2022-12-25T16:44:45.110Z,2.70
2022-12-25T16:49:47.097Z,2.40
2022-12-25T16:54:48.768Z,2.83
2022-12-25T16:59:50.823Z,2.30
2022-12-25T17:04:52.373Z,2.40
2022-12-25T17:09:54.009Z,2.83
2022-12-25T17:14:55.782Z,2.60
2022-12-25T17:19:57.385Z,2.30
2022-12-25T17:24:58.973Z,2.80
2022-12-25T17:30:00.641Z,2.60
2022-12-25T17:35:02.193Z,2.50
2022-12-25T17:40:04.362Z,2.63
2022-12-25T17:45:06.551Z,2.50
2022-12-25T17:50:08.297Z,2.70
2022-12-25T17:55:10.010Z,2.70
2022-12-25T18:00:13.170Z,2.53
2022-12-25T18:05:14.695Z,2.50
2022-12-25T18:10:16.412Z,2.80
2022-12-25T18:15:18.047Z,2.20
2022-12-25T18:20:19.675Z,2.80
2022-12-25T18:25:21.366Z,2.43
2022-12-25T18:30:23.009Z,2.40
2022-12-25T18:35:29.120Z,2.40
2022-12-25T18:40:30.788Z,2.70
2022-12-25T18:45:32.424Z,2.50
2022-12-25T18:50:37.252Z,2.50
2022-12-25T18:55:40.613Z,2.70
2022-12-25T19:00:42.396Z,2.30
2022-12-25T19:05:44.076Z,2.43
2022-12-25T19:10:45.748Z,2.63
2022-12-25T19:15:47.322Z,2.80
2022-12-25T19:20:49.025Z,2.43
2022-12-25T19:25:50.676Z,2.63
2022-12-25T19:30:53.905Z,2.40
2022-12-25T19:36:00.628Z,2.53
2022-12-25T19:41:12.270Z,2.87
2022-12-25T19:46:20.025Z,2.47
2022-12-25T19:51:25.576Z,2.40
2022-12-25T19:56:28.832Z,2.57
2022-12-25T20:01:30.867Z,2.23
2022-12-25T20:06:33.728Z,2.10
2022-12-25T20:11:36.529Z,2.57
2022-12-25T20:16:39.089Z,2.30
2022-12-25T20:21:41.550Z,2.43
2022-12-25T20:26:47.537Z,2.33
2022-12-25T20:31:50.050Z,2.40
2022-12-25T20:36:51.911Z,2.30
2022-12-25T20:41:53.699Z,2.70
2022-12-25T20:46:59.246Z,2.40
2022-12-25T20:52:05.242Z,2.47
2022-12-25T20:57:07.391Z,2.73
2022-12-25T21:02:34.396Z,2.40
2022-12-25T21:07:33.489Z,2.37
2022-12-25T21:12:35.091Z,2.23
2022-12-25T21:17:36.693Z,2.30
2022-12-25T21:22:38.756Z,2.50
2022-12-25T21:27:40.422Z,2.47
2022-12-25T21:33:08.435Z,2.77
2022-12-25T21:38:10.181Z,2.37
2022-12-25T21:43:16.005Z,2.47
2022-12-25T21:48:17.535Z,2.80
2022-12-25T21:53:19.940Z,2.57
2022-12-25T21:58:21.529Z,2.60
2022-12-25T22:03:24.067Z,2.37
2022-12-25T22:08:30.012Z,2.57
2022-12-25T22:13:50.616Z,2.63
2022-12-25T22:19:10.643Z,2.33
2022-12-25T22:24:12.306Z,2.07
2022-12-25T22:29:13.967Z,2.50
2022-12-25T22:34:16.440Z,2.00
2022-12-25T22:39:18.169Z,2.43
2022-12-25T22:44:20.267Z,2.13
2022-12-25T22:49:21.864Z,2.30
2022-12-25T22:54:24.479Z,1.90
2022-12-25T22:59:26.617Z,1.87
2022-12-25T23:04:29.250Z,1.80
2022-12-25T23:09:30.838Z,2.00
2022-12-25T23:14:41.655Z,1.87
2022-12-25T23:20:02.339Z,1.97
2022-12-25T23:25:27.491Z,1.53
2022-12-25T23:30:29.030Z,1.50
2022-12-25T23:35:30.980Z,1.33
2022-12-25T23:40:33.491Z,1.90
2022-12-25T23:45:35.100Z,1.33
2022-12-25T23:50:36.653Z,1.53
2022-12-25T23:55:38.295Z,1.23
